Time,TemperatureF,DewpointF,PressureIn,WindDirection,WindDirectionDegrees,WindSpeedMPH,WindSpeedGustMPH,Humidity,HourlyPrecipIn,Conditions,Clouds,dailyrainin,SoftwareType,DateUTC
2013-03-21 00:02:00,33.8,28.0,29.84,North,355,4.0,6.0,79,0.00,,,0.00,weatherlink.com 1.10,2013-03-21 04:02:00,
2013-03-21 00:17:00,32.8,26.0,29.84,North,5,4.0,8.0,77,0.00,,,0.00,weatherlink.com 1.10,2013-03-21 04:17:00,
2013-03-21 00:32:00,32.3,26.0,29.84,NNE,27,2.0,6.0,76,0.00,,,0.00,weatherlink.com 1.10,2013-03-21 04:32:00,
2013-03-21 00:47:00,32.2,25.0,29.83,NNW,340,2.0,5.0,74,0.00,,,0.00,weatherlink.com 1.10,2013-03-21 04:47:00,
2013-03-21 01:02:00,32.3,25.0,29.83,NE,39,1.0,3.0,73,0.00,,,0.00,weatherlink.com 1.10,2013-03-21 05:02:00,
2013-03-21 01:18:00,32.3,24.0,29.82,North,5,1.0,6.0,72,0.00,,,0.00,weatherlink.com 1.10,2013-03-21 05:18:00,
2013-03-21 01:33:00,32.3,24.0,29.82,NNE,25,0.0,4.0,70,0.00,,,0.00,weatherlink.com 1.10,2013-03-21 05:33:00,
2013-03-21 01:48:00,32.1,23.0,29.82,NNE,30,3.0,6.0,68,0.00,,,0.00,weatherlink.com 1.10,2013-03-21 05:48:00,
2013-03-21 02:03:00,31.9,23.0,29.82,NNE,19,1.0,5.0,69,0.00,,,0.00,weatherlink.com 1.10,2013-03-21 06:03:00,
2013-03-21 02:18:00,31.7,23.0,29.82,NNE,30,2.0,4.0,69,0.00,,,0.00,weatherlink.com 1.10,2013-03-21 06:18:00,
2013-03-21 02:33:00,31.6,22.0,29.83,NNW,327,2.0,5.0,68,0.00,,,0.00,weatherlink.com 1.10,2013-03-21 06:33:00,
2013-03-21 02:48:00,31.3,20.0,29.82,NW,315,1.0,5.0,64,0.00,,,0.00,weatherlink.com 1.10,2013-03-21 06:48:00,
2013-03-21 03:03:00,31.0,20.0,29.82,NNE,27,1.0,5.0,63,0.00,,,0.00,weatherlink.com 1.10,2013-03-21 07:03:00,
2013-03-21 03:18:00,30.6,19.0,29.82,NNE,15,1.0,4.0,62,0.00,,,0.00,weatherlink.com 1.10,2013-03-21 07:18:00,
2013-03-21 03:33:00,30.3,18.0,29.81,NNE,22,1.0,5.0,61,0.00,,,0.00,weatherlink.com 1.10,2013-03-21 07:33:00,
2013-03-21 03:48:00,30.0,18.0,29.81,NNE,23,1.0,8.0,60,0.00,,,0.00,weatherlink.com 1.10,2013-03-21 07:48:00,
2013-03-21 04:03:00,29.7,18.0,29.81,NNE,25,1.0,4.0,62,0.00,,,0.00,weatherlink.com 1.10,2013-03-21 08:03:00,
2013-03-21 04:18:00,29.4,19.0,29.80,NNE,23,1.0,7.0,64,0.00,,,0.00,weatherlink.com 1.10,2013-03-21 08:18:00,
2013-03-21 04:33:00,29.2,19.0,29.80,NE,34,1.0,3.0,65,0.00,,,0.00,weatherlink.com 1.10,2013-03-21 08:33:00,
2013-03-21 04:48:00,29.0,19.0,29.80,North,350,2.0,5.0,67,0.00,,,0.00,weatherlink.com 1.10,2013-03-21 08:48:00,
2013-03-21 05:03:00,28.8,19.0,29.80,NE,39,1.0,7.0,68,0.00,,,0.00,weatherlink.com 1.10,2013-03-21 09:03:00,
2013-03-21 05:18:00,28.2,18.0,29.80,NNE,26,0.0,6.0,66,0.00,,,0.00,weatherlink.com 1.10,2013-03-21 09:18:00,
2013-03-21 05:33:00,27.5,18.0,29.80,North,5,0.0,4.0,67,0.00,,,0.00,weatherlink.com 1.10,2013-03-21 09:33:00,
2013-03-21 05:49:00,27.0,17.0,29.80,North,5,0.0,5.0,66,0.00,,,0.00,weatherlink.com 1.10,2013-03-21 09:49:00,
2013-03-21 06:03:00,26.7,17.0,29.81,North,11,2.0,4.0,66,0.00,,,0.00,weatherlink.com 1.10,2013-03-21 10:03:00,
2013-03-21 06:18:00,26.6,16.0,29.81,NNE,17,1.0,5.0,65,0.00,,,0.00,weatherlink.com 1.10,2013-03-21 10:18:00,
2013-03-21 06:33:00,26.5,16.0,29.82,NE,52,0.0,4.0,66,0.00,,,0.00,weatherlink.com 1.10,2013-03-21 10:33:00,
2013-03-21 06:48:00,26.3,16.0,29.82,NNE,31,2.0,5.0,66,0.00,,,0.00,weatherlink.com 1.10,2013-03-21 10:48:00,
2013-03-21 07:03:00,26.0,16.0,29.82,NNE,33,1.0,3.0,66,0.00,,,0.00,weatherlink.com 1.10,2013-03-21 11:03:00,
2013-03-21 07:18:00,25.8,16.0,29.82,NNE,22,6.0,6.0,67,0.00,,,0.00,weatherlink.com 1.10,2013-03-21 11:18:00,
2013-03-21 07:33:00,25.8,17.0,29.82,North,351,0.0,3.0,68,0.00,,,0.00,weatherlink.com 1.10,2013-03-21 11:33:00,
2013-03-21 07:48:00,25.8,17.0,29.83,NNE,24,0.0,3.0,70,0.00,,,0.00,weatherlink.com 1.10,2013-03-21 11:48:00,
2013-03-21 08:03:00,26.3,18.0,29.82,North,360,1.0,4.0,72,0.00,,,0.00,weatherlink.com 1.10,2013-03-21 12:03:00,
2013-03-21 08:18:00,26.4,17.0,29.82,East,80,0.0,3.0,69,0.00,,,0.00,weatherlink.com 1.10,2013-03-21 12:18:00,
2013-03-21 08:33:00,26.5,17.0,29.82,NW,311,1.0,4.0,68,0.00,,,0.00,weatherlink.com 1.10,2013-03-21 12:33:00,
2013-03-21 08:48:00,27.1,15.0,29.82,North,10,4.0,7.0,61,0.00,,,0.00,weatherlink.com 1.10,2013-03-21 12:48:00,
2013-03-21 09:03:00,27.9,14.0,29.82,NNE,16,1.0,6.0,56,0.00,,,0.00,weatherlink.com 1.10,2013-03-21 13:03:00,
2013-03-21 09:18:00,28.9,14.0,29.82,North,10,2.0,6.0,53,0.00,,,0.00,weatherlink.com 1.10,2013-03-21 13:18:00,
2013-03-21 09:33:00,29.3,14.0,29.82,NE,52,1.0,6.0,52,0.00,,,0.00,weatherlink.com 1.10,2013-03-21 13:33:00,
2013-03-21 09:48:00,29.5,14.0,29.82,NE,40,3.0,5.0,53,0.00,,,0.00,weatherlink.com 1.10,2013-03-21 13:48:00,
2013-03-21 10:03:00,28.0,16.0,29.82,NW,323,1.0,6.0,62,0.00,,,0.00,weatherlink.com 1.10,2013-03-21 14:03:00,
2013-03-21 10:18:00,29.2,15.0,29.82,North,11,1.0,9.0,55,0.00,,,0.00,weatherlink.com 1.10,2013-03-21 14:18:00,
2013-03-21 10:33:00,29.9,14.0,29.82,WNW,295,0.0,5.0,52,0.00,,,0.00,weatherlink.com 1.10,2013-03-21 14:33:00,
2013-03-21 10:48:00,30.7,13.0,29.82,NNW,334,0.0,9.0,47,0.00,,,0.00,weatherlink.com 1.10,2013-03-21 14:48:00,
2013-03-21 11:04:00,31.2,11.0,29.82,NE,43,1.0,7.0,43,0.00,,,0.00,weatherlink.com 1.10,2013-03-21 15:04:00,
2013-03-21 11:18:00,31.6,12.0,29.82,NNE,33,2.0,9.0,45,0.00,,,0.00,weatherlink.com 1.10,2013-03-21 15:18:00,
2013-03-21 11:33:00,31.7,13.0,29.82,NNE,17,4.0,7.0,47,0.00,,,0.00,weatherlink.com 1.10,2013-03-21 15:33:00,
2013-03-21 11:48:00,30.2,13.0,29.82,NNE,25,3.0,7.0,49,0.00,,,0.00,weatherlink.com 1.10,2013-03-21 15:48:00,
2013-03-21 12:03:00,31.9,13.0,29.81,NNE,24,4.0,8.0,45,0.00,,,0.00,weatherlink.com 1.10,2013-03-21 16:03:00,
2013-03-21 12:18:00,30.5,13.0,29.82,NE,38,2.0,6.0,48,0.00,,,0.00,weatherlink.com 1.10,2013-03-21 16:18:00,
2013-03-21 12:34:00,31.9,14.0,29.81,NE,40,8.0,8.0,48,0.00,,,0.00,weatherlink.com 1.10,2013-03-21 16:34:00,
2013-03-21 12:48:00,31.8,13.0,29.81,WNW,302,2.0,9.0,46,0.00,,,0.00,weatherlink.com 1.10,2013-03-21 16:48:00,
2013-03-21 13:18:00,33.2,16.0,29.81,WSW,240,3.0,9.0,49,0.00,,,0.00,weatherlink.com 1.10,2013-03-21 17:18:00,
2013-03-21 13:34:00,32.9,15.0,29.80,NW,325,2.0,8.0,47,0.00,,,0.00,weatherlink.com 1.10,2013-03-21 17:34:00,
2013-03-21 13:49:00,31.7,13.0,29.80,North,5,3.0,9.0,46,0.00,,,0.00,weatherlink.com 1.10,2013-03-21 17:49:00,
2013-03-21 14:04:00,32.5,13.0,29.80,NE,46,1.0,11.0,44,0.00,,,0.00,weatherlink.com 1.10,2013-03-21 18:04:00,
2013-03-21 14:19:00,32.1,14.0,29.79,NE,36,5.0,9.0,47,0.00,,,0.00,weatherlink.com 1.10,2013-03-21 18:19:00,
2013-03-21 14:34:00,33.2,13.0,29.80,NNW,333,1.0,8.0,43,0.00,,,0.00,weatherlink.com 1.10,2013-03-21 18:34:00,
2013-03-21 14:49:00,32.2,11.0,29.79,NNE,26,3.0,7.0,42,0.00,,,0.00,weatherlink.com 1.10,2013-03-21 18:49:00,
2013-03-21 15:04:00,31.3,13.0,29.80,North,10,1.0,10.0,46,0.00,,,0.00,weatherlink.com 1.10,2013-03-21 19:04:00,
2013-03-21 15:19:00,30.0,13.0,29.80,NNE,32,4.0,10.0,50,0.00,,,0.00,weatherlink.com 1.10,2013-03-21 19:19:00,
2013-03-21 15:34:00,31.5,14.0,29.80,NNE,18,1.0,11.0,48,0.00,,,0.00,weatherlink.com 1.10,2013-03-21 19:34:00,
2013-03-21 15:49:00,32.6,15.0,29.80,ENE,65,7.0,9.0,48,0.00,,,0.00,weatherlink.com 1.10,2013-03-21 19:49:00,
2013-03-21 16:04:00,33.2,14.0,29.80,NW,313,3.0,12.0,46,0.00,,,0.00,weatherlink.com 1.10,2013-03-21 20:04:00,
2013-03-21 16:19:00,32.5,12.0,29.80,NNW,332,3.0,12.0,43,0.00,,,0.00,weatherlink.com 1.10,2013-03-21 20:19:00,
2013-03-21 16:34:00,30.9,13.0,29.81,ENE,74,3.0,10.0,47,0.00,,,0.00,weatherlink.com 1.10,2013-03-21 20:34:00,
2013-03-21 16:49:00,30.2,12.0,29.81,NNE,26,1.0,6.0,46,0.00,,,0.00,weatherlink.com 1.10,2013-03-21 20:49:00,
2013-03-21 17:04:00,30.6,11.0,29.81,NE,50,2.0,8.0,45,0.00,,,0.00,weatherlink.com 1.10,2013-03-21 21:04:00,
2013-03-21 17:19:00,30.5,10.0,29.82,North,355,2.0,8.0,42,0.00,,,0.00,weatherlink.com 1.10,2013-03-21 21:19:00,
2013-03-21 17:34:00,30.4,11.0,29.82,NNE,18,4.0,8.0,45,0.00,,,0.00,weatherlink.com 1.10,2013-03-21 21:34:00,
2013-03-21 17:49:00,30.4,11.0,29.83,North,355,3.0,8.0,45,0.00,,,0.00,weatherlink.com 1.10,2013-03-21 21:49:00,
2013-03-21 18:04:00,29.7,11.0,29.83,ESE,103,1.0,10.0,45,0.00,,,0.00,weatherlink.com 1.10,2013-03-21 22:04:00,
2013-03-21 18:19:00,29.7,11.0,29.84,NNE,32,1.0,10.0,45,0.00,,,0.00,weatherlink.com 1.10,2013-03-21 22:19:00,
2013-03-21 18:34:00,29.4,11.0,29.84,North,355,2.0,7.0,46,0.00,,,0.00,weatherlink.com 1.10,2013-03-21 22:34:00,
2013-03-21 18:49:00,29.0,10.0,29.85,ENE,59,1.0,9.0,46,0.00,,,0.00,weatherlink.com 1.10,2013-03-21 22:49:00,
2013-03-21 19:04:00,28.7,10.0,29.86,NNW,330,1.0,8.0,45,0.00,,,0.00,weatherlink.com 1.10,2013-03-21 23:04:00,
2013-03-21 19:19:00,28.5,10.0,29.86,WNW,299,1.0,10.0,46,0.00,,,0.00,weatherlink.com 1.10,2013-03-21 23:19:00,
2013-03-21 19:34:00,28.1,11.0,29.87,ENE,65,1.0,10.0,48,0.00,,,0.00,weatherlink.com 1.10,2013-03-21 23:34:00,
2013-03-21 19:49:00,27.7,11.0,29.87,NE,53,2.0,5.0,49,0.00,,,0.00,weatherlink.com 1.10,2013-03-21 23:49:00,
2013-03-21 20:04:00,27.4,11.0,29.87,NW,319,1.0,8.0,50,0.00,,,0.00,weatherlink.com 1.10,2013-03-22 00:04:00,
2013-03-21 20:19:00,27.2,10.0,29.88,NW,319,1.0,8.0,49,0.00,,,0.00,weatherlink.com 1.10,2013-03-22 00:19:00,
2013-03-21 20:34:00,26.9,10.0,29.89,NNE,17,1.0,4.0,50,0.00,,,0.00,weatherlink.com 1.10,2013-03-22 00:34:00,
2013-03-21 20:49:00,27.0,10.0,29.89,NNE,12,0.0,8.0,49,0.00,,,0.00,weatherlink.com 1.10,2013-03-22 00:49:00,
2013-03-21 21:04:00,26.8,10.0,29.89,NNE,15,3.0,8.0,49,0.00,,,0.00,weatherlink.com 1.10,2013-03-22 01:04:00,
2013-03-21 21:19:00,26.6,10.0,29.89,SE,144,0.0,5.0,50,0.00,,,0.00,weatherlink.com 1.10,2013-03-22 01:19:00,
2013-03-21 21:34:00,26.3,11.0,29.90,East,99,1.0,5.0,52,0.00,,,0.00,weatherlink.com 1.10,2013-03-22 01:34:00,
2013-03-21 21:49:00,26.2,11.0,29.90,NW,321,1.0,3.0,52,0.00,,,0.00,weatherlink.com 1.10,2013-03-22 01:49:00,
2013-03-21 22:04:00,26.2,11.0,29.90,SW,223,1.0,3.0,52,0.00,,,0.00,weatherlink.com 1.10,2013-03-22 02:04:00,
2013-03-21 22:19:00,26.0,12.0,29.90,SSW,201,1.0,5.0,55,0.00,,,0.00,weatherlink.com 1.10,2013-03-22 02:19:00,
2013-03-21 22:34:00,25.8,12.0,29.90,NNE,16,0.0,3.0,55,0.00,,,0.00,weatherlink.com 1.10,2013-03-22 02:34:00,
2013-03-21 22:49:00,25.8,12.0,29.90,SW,219,1.0,4.0,56,0.00,,,0.00,weatherlink.com 1.10,2013-03-22 02:49:00,
2013-03-21 23:04:00,25.8,12.0,29.90,South,182,0.0,4.0,56,0.00,,,0.00,weatherlink.com 1.10,2013-03-22 03:04:00,
2013-03-21 23:19:00,26.1,11.0,29.90,East,99,1.0,11.0,54,0.00,,,0.00,weatherlink.com 1.10,2013-03-22 03:19:00,
2013-03-21 23:34:00,26.0,12.0,29.91,West,277,3.0,3.0,55,0.00,,,0.00,weatherlink.com 1.10,2013-03-22 03:34:00,
2013-03-21 23:49:00,25.9,12.0,29.92,WSW,243,1.0,3.0,55,0.00,,,0.00,weatherlink.com 1.10,2013-03-22 03:49:00,